Time;durP1;ratioP1;P1;durP2;ratioP2;P2;SDS_P1;SDS_P2;PMS_P1;PMS_P2;Temp;Humidity;BMP_temperature;BMP_pressure;BME280_temperature;BME280_humidity;BME280_pressure;Samples;Min_cycle;Max_cycle;Signal;HPM_P1;HPM_P2
2021/03/04 00:00:36;;;;;;;114.00;31.00;;;5.60;99.90;;;;;;5044533;28;20056;-65
2021/03/04 00:03:04;;;;;;;97.18;30.85;;;5.70;99.90;;;;;;5041462;28;20064;-65
2021/03/04 00:05:29;;;;;;;104.22;30.95;;;5.70;99.90;;;;;;5029760;28;20191;-64
2021/03/04 00:07:55;;;;;;;106.22;32.55;;;5.70;99.90;;;;;;5029520;28;20538;-65
2021/03/04 00:10:22;;;;;;;98.57;30.67;;;5.80;99.90;;;;;;5039244;28;20037;-64
2021/03/04 00:12:49;;;;;;;94.75;28.92;;;5.70;99.90;;;;;;5032558;28;20040;-66
2021/03/04 00:15:18;;;;;;;91.50;27.85;;;5.70;99.90;;;;;;5037934;28;20044;-66
2021/03/04 00:17:45;;;;;;;93.22;29.00;;;5.70;99.90;;;;;;5034629;28;20052;-65
2021/03/04 00:20:16;;;;;;;106.18;30.95;;;5.70;99.90;;;;;;5034372;28;20035;-65
2021/03/04 00:22:41;;;;;;;102.75;30.42;;;5.70;99.90;;;;;;5041352;28;20026;-65
2021/03/04 00:25:08;;;;;;;114.75;31.42;;;5.70;99.90;;;;;;5042317;28;20029;-65
2021/03/04 00:27:34;;;;;;;112.55;33.47;;;5.70;99.90;;;;;;5032949;28;20044;-66
2021/03/04 00:30:00;;;;;;;115.78;35.38;;;5.70;99.90;;;;;;5033604;28;20685;-65
2021/03/04 00:32:25;;;;;;;117.03;33.85;;;5.70;99.90;;;;;;5034295;28;20041;-66
2021/03/04 00:34:51;;;;;;;112.75;29.23;;;5.70;99.90;;;;;;5037608;28;20029;-66
2021/03/04 00:37:17;;;;;;;117.45;28.75;;;5.70;99.90;;;;;;5031394;28;20111;-66
2021/03/04 00:39:42;;;;;;;109.25;31.85;;;5.60;99.90;;;;;;5032231;28;20636;-64
2021/03/04 00:42:08;;;;;;;117.78;30.95;;;5.60;99.90;;;;;;5029370;28;20017;-65
2021/03/04 00:44:35;;;;;;;120.68;33.65;;;5.60;99.90;;;;;;5033332;28;20067;-67
2021/03/04 00:47:00;;;;;;;124.43;32.95;;;5.60;99.90;;;;;;5040850;28;20051;-65
2021/03/04 00:49:26;;;;;;;133.93;34.90;;;5.60;99.90;;;;;;5035450;28;20477;-66
2021/03/04 00:51:51;;;;;;;124.35;32.03;;;5.60;99.90;;;;;;5033420;28;20029;-66
2021/03/04 00:54:17;;;;;;;133.85;33.42;;;5.60;99.90;;;;;;5034528;28;20040;-65
2021/03/04 00:56:42;;;;;;;133.18;35.53;;;5.50;99.90;;;;;;5034041;28;20034;-65
2021/03/04 00:59:08;;;;;;;123.35;33.78;;;5.50;99.90;;;;;;5039122;28;20037;-66
2021/03/04 01:01:33;;;;;;;126.93;33.95;;;5.50;99.90;;;;;;5036770;28;20037;-65
2021/03/04 01:03:59;;;;;;;118.97;33.65;;;5.50;99.90;;;;;;5032901;28;20481;-65
2021/03/04 01:06:24;;;;;;;117.82;33.17;;;5.50;99.90;;;;;;5033462;28;20048;-65
2021/03/04 01:08:50;;;;;;;127.47;32.83;;;5.50;99.90;;;;;;5036115;28;20029;-65
2021/03/04 01:11:15;;;;;;;142.18;36.40;;;5.50;99.90;;;;;;5040720;28;20180;-64
2021/03/04 01:13:42;;;;;;;114.57;31.10;;;5.50;99.90;;;;;;5039784;28;20040;-64
2021/03/04 01:16:08;;;;;;;122.28;30.98;;;5.50;99.90;;;;;;5035864;28;20567;-65
2021/03/04 01:18:34;;;;;;;117.93;31.80;;;5.50;99.90;;;;;;5038588;28;20040;-64
2021/03/04 01:21:00;;;;;;;115.95;31.75;;;5.50;99.90;;;;;;5044875;28;20513;-65
2021/03/04 01:23:25;;;;;;;114.45;31.98;;;5.50;99.90;;;;;;5033024;28;20052;-65
2021/03/04 01:25:52;;;;;;;115.93;30.17;;;5.40;99.90;;;;;;5038334;28;20063;-65
2021/03/04 01:28:17;;;;;;;106.78;31.55;;;5.40;99.90;;;;;;5047973;28;20029;-65
2021/03/04 01:30:43;;;;;;;116.53;31.38;;;5.40;99.90;;;;;;5035201;28;20041;-66
2021/03/04 01:33:09;;;;;;;101.78;29.92;;;5.40;99.90;;;;;;5028783;28;20087;-65
2021/03/04 01:35:34;;;;;;;106.03;28.80;;;5.40;99.90;;;;;;5028856;28;20036;-64
2021/03/04 01:38:00;;;;;;;96.68;27.15;;;5.40;99.90;;;;;;5039784;28;20032;-65
2021/03/04 01:40:25;;;;;;;105.65;27.52;;;5.40;99.90;;;;;;5034632;28;20127;-65
2021/03/04 01:42:51;;;;;;;107.82;27.60;;;5.40;99.90;;;;;;5046353;28;20044;-66
2021/03/04 01:45:18;;;;;;;93.18;26.50;;;5.40;99.90;;;;;;5040921;28;20030;-66
2021/03/04 01:47:49;;;;;;;86.53;26.77;;;5.40;99.90;;;;;;5038076;28;20045;-65
2021/03/04 01:50:16;;;;;;;90.22;26.77;;;5.40;99.90;;;;;;5036977;28;20068;-66
2021/03/04 01:52:42;;;;;;;82.22;24.23;;;5.50;99.90;;;;;;5037149;28;20037;-64
2021/03/04 01:55:08;;;;;;;82.90;26.65;;;5.40;99.90;;;;;;5037026;28;20029;-65
2021/03/04 01:57:33;;;;;;;86.70;26.17;;;5.40;99.90;;;;;;5033680;28;20701;-65
2021/03/04 02:00:00;;;;;;;87.68;27.98;;;5.40;99.90;;;;;;5031519;28;20037;-67
2021/03/04 02:02:26;;;;;;;97.03;26.98;;;5.40;99.90;;;;;;5038945;28;20025;-65
2021/03/04 02:04:53;;;;;;;86.97;26.08;;;5.40;99.90;;;;;;5032160;28;20028;-65
2021/03/04 02:07:46;;;;;;;93.15;25.25;;;5.40;99.90;;;;;;5033171;28;20030;-65
2021/03/04 02:10:35;;;;;;;98.63;28.63;;;5.40;99.90;;;;;;5034008;28;20103;-65
2021/03/04 02:13:35;;;;;;;88.43;27.02;;;5.40;99.90;;;;;;5038841;28;20060;-66
2021/03/04 02:16:14;;;;;;;81.82;25.67;;;5.40;99.90;;;;;;5040747;28;20072;-66
2021/03/04 02:18:43;;;;;;;81.55;23.92;;;5.40;99.90;;;;;;5034820;28;20033;-66
2021/03/04 02:21:33;;;;;;;84.10;25.15;;;5.30;99.90;;;;;;5040866;28;20040;-66
2021/03/04 02:24:01;;;;;;;76.70;23.48;;;5.30;99.90;;;;;;5000771;28;20086;-64
2021/03/04 02:26:59;;;;;;;74.43;22.02;;;5.30;99.90;;;;;;5039624;28;20034;-64
2021/03/04 02:29:27;;;;;;;71.72;21.00;;;5.30;99.90;;;;;;5037208;28;20048;-65
2021/03/04 02:31:54;;;;;;;64.95;21.40;;;5.20;99.90;;;;;;5040942;23;20035;-65
2021/03/04 02:34:22;;;;;;;66.63;20.48;;;5.30;99.90;;;;;;5006941;28;20027;-65
2021/03/04 02:36:49;;;;;;;76.15;25.00;;;5.20;99.90;;;;;;5009559;28;20026;-64
2021/03/04 02:39:17;;;;;;;72.25;21.88;;;5.20;99.90;;;;;;5007439;28;20054;-64
2021/03/04 02:41:45;;;;;;;73.25;21.70;;;5.20;99.90;;;;;;5029485;28;20026;-65
2021/03/04 02:44:11;;;;;;;69.65;21.48;;;5.30;99.90;;;;;;4994911;28;20059;-65
2021/03/04 02:46:39;;;;;;;65.80;20.45;;;5.30;99.90;;;;;;4999982;28;20042;-66
2021/03/04 02:49:06;;;;;;;61.53;20.02;;;5.30;99.90;;;;;;4992258;28;20053;-72
2021/03/04 02:51:34;;;;;;;63.70;20.70;;;5.20;99.90;;;;;;4998091;28;20037;-65
2021/03/04 02:54:01;;;;;;;68.15;19.98;;;5.20;99.90;;;;;;4996050;28;20038;-65
2021/03/04 02:56:29;;;;;;;66.53;21.88;;;5.20;99.90;;;;;;4998290;28;20122;-65
2021/03/04 02:58:58;;;;;;;73.15;21.42;;;5.20;99.90;;;;;;4996952;28;20045;-65
2021/03/04 03:01:25;;;;;;;71.28;22.45;;;5.10;99.90;;;;;;5000826;28;20092;-66
2021/03/04 03:03:53;;;;;;;77.47;22.08;;;5.20;99.90;;;;;;4999397;28;20093;-66
2021/03/04 03:06:20;;;;;;;86.60;23.88;;;5.10;99.90;;;;;;4999093;28;20045;-65
2021/03/04 03:08:47;;;;;;;83.40;24.52;;;5.10;99.90;;;;;;4999971;28;20046;-64
2021/03/04 03:11:15;;;;;;;85.88;22.58;;;5.10;99.90;;;;;;5000085;28;20033;-65
2021/03/04 03:13:42;;;;;;;73.88;23.63;;;5.00;99.90;;;;;;5002105;28;20042;-65
2021/03/04 03:16:08;;;;;;;79.15;22.00;;;5.10;99.90;;;;;;4997972;28;20407;-64
2021/03/04 03:18:33;;;;;;;69.60;20.60;;;5.10;99.90;;;;;;5002506;28;20084;-65
2021/03/04 03:20:59;;;;;;;72.63;21.48;;;5.10;99.90;;;;;;4999690;28;20031;-65
2021/03/04 03:23:25;;;;;;;75.10;23.65;;;5.10;99.90;;;;;;5001493;28;20056;-66
2021/03/04 03:25:50;;;;;;;69.93;21.60;;;5.10;99.90;;;;;;5000477;28;20061;-65
2021/03/04 03:28:16;;;;;;;76.07;22.33;;;5.10;99.90;;;;;;4998906;28;20035;-65
2021/03/04 03:30:42;;;;;;;58.03;20.67;;;5.20;99.90;;;;;;5000386;28;20045;-65
2021/03/04 03:33:11;;;;;;;66.00;19.65;;;5.20;99.90;;;;;;4999546;28;20030;-64
2021/03/04 03:35:38;;;;;;;56.78;17.67;;;5.10;99.90;;;;;;5001822;28;20061;-66
2021/03/04 03:38:04;;;;;;;57.60;18.60;;;5.10;99.90;;;;;;4999628;28;20042;-64
2021/03/04 03:40:32;;;;;;;53.80;18.15;;;5.10;99.90;;;;;;4994401;28;20487;-65
2021/03/04 03:43:00;;;;;;;53.97;18.40;;;5.10;99.90;;;;;;5007489;28;20124;-65
2021/03/04 03:45:33;;;;;;;54.38;17.85;;;5.00;99.90;;;;;;5009685;28;20057;-64
2021/03/04 03:48:00;;;;;;;62.30;19.98;;;5.00;99.90;;;;;;5003689;28;20034;-64
2021/03/04 03:50:26;;;;;;;54.05;18.58;;;5.00;99.90;;;;;;5008639;28;20033;-64
2021/03/04 03:52:53;;;;;;;49.10;17.10;;;5.00;99.90;;;;;;5008021;28;20033;-65
2021/03/04 03:55:19;;;;;;;54.22;17.40;;;5.00;99.90;;;;;;5001459;28;20294;-66
2021/03/04 03:57:46;;;;;;;39.60;15.05;;;5.00;99.90;;;;;;4999943;28;20048;-65
2021/03/04 04:00:13;;;;;;;45.72;15.60;;;4.90;99.90;;;;;;5000297;28;20049;-65
2021/03/04 04:02:39;;;;;;;46.25;15.80;;;4.90;99.90;;;;;;4998794;28;20061;-64
2021/03/04 04:05:06;;;;;;;41.95;15.15;;;4.90;99.90;;;;;;4997585;28;20553;-66
2021/03/04 04:07:32;;;;;;;42.80;15.88;;;5.00;99.90;;;;;;5001218;28;20109;-66
2021/03/04 04:09:58;;;;;;;54.88;17.40;;;4.90;99.90;;;;;;4994595;28;20035;-65
2021/03/04 04:12:25;;;;;;;43.33;15.48;;;4.90;99.90;;;;;;4998763;28;20034;-65
2021/03/04 04:14:51;;;;;;;43.33;17.48;;;4.90;99.90;;;;;;4998954;28;20030;-66
2021/03/04 04:17:20;;;;;;;39.50;15.05;;;4.90;99.90;;;;;;4998606;28;20041;-65
2021/03/04 04:19:47;;;;;;;54.17;17.50;;;4.90;99.90;;;;;;4998947;28;20037;-65
2021/03/04 04:22:13;;;;;;;44.35;15.90;;;4.90;99.90;;;;;;4999496;28;20030;-65
2021/03/04 04:24:39;;;;;;;37.85;13.20;;;4.90;99.90;;;;;;5000157;28;20041;-65
2021/03/04 04:27:05;;;;;;;41.92;14.70;;;4.90;99.90;;;;;;4998421;28;20026;-65
2021/03/04 04:29:31;;;;;;;35.47;13.85;;;4.80;99.90;;;;;;4999714;28;20415;-66
2021/03/04 04:31:57;;;;;;;35.80;13.57;;;4.90;99.90;;;;;;4996051;28;20120;-65
2021/03/04 04:34:23;;;;;;;40.63;14.75;;;4.90;99.90;;;;;;5001269;28;20498;-66
2021/03/04 04:36:48;;;;;;;40.92;14.50;;;4.90;99.90;;;;;;4997100;28;20064;-65
2021/03/04 04:39:14;;;;;;;38.70;14.45;;;4.90;99.90;;;;;;4999623;28;20045;-65
2021/03/04 04:41:39;;;;;;;46.10;15.32;;;4.90;99.90;;;;;;4999064;28;20122;-65
2021/03/04 04:44:05;;;;;;;43.28;15.85;;;5.00;99.90;;;;;;4996893;28;20483;-66
2021/03/04 04:46:31;;;;;;;43.05;15.98;;;4.90;99.90;;;;;;5000778;28;20045;-65
2021/03/04 04:48:57;;;;;;;42.85;16.55;;;5.00;99.90;;;;;;4997141;28;20034;-65
2021/03/04 04:51:22;;;;;;;40.42;14.70;;;4.90;99.90;;;;;;4998968;28;20735;-65
2021/03/04 04:53:48;;;;;;;47.42;17.13;;;4.90;99.90;;;;;;4996679;28;20064;-65
2021/03/04 04:56:14;;;;;;;42.78;14.05;;;4.90;99.90;;;;;;4999447;28;20399;-65
2021/03/04 04:58:39;;;;;;;41.03;13.32;;;4.90;99.90;;;;;;4997182;28;20034;-64
2021/03/04 05:01:05;;;;;;;37.03;15.18;;;4.90;99.90;;;;;;4996206;28;20121;-64
2021/03/04 05:03:30;;;;;;;38.25;13.82;;;4.90;99.90;;;;;;5000570;28;20037;-65
2021/03/04 05:05:56;;;;;;;35.63;13.30;;;4.90;99.90;;;;;;4996878;28;20031;-65
2021/03/04 05:08:22;;;;;;;36.22;13.25;;;4.90;99.90;;;;;;5000228;28;20499;-64
2021/03/04 05:10:47;;;;;;;39.00;13.77;;;4.90;99.90;;;;;;4997657;28;20042;-65
2021/03/04 05:13:13;;;;;;;33.90;14.15;;;4.90;99.90;;;;;;4997692;28;20384;-65
2021/03/04 05:15:39;;;;;;;38.30;13.35;;;4.80;99.90;;;;;;4999237;28;20518;-64
2021/03/04 05:18:04;;;;;;;42.25;14.55;;;4.90;99.90;;;;;;4997818;28;20402;-63
2021/03/04 05:20:30;;;;;;;36.35;14.43;;;4.90;99.90;;;;;;4999041;28;20061;-65
2021/03/04 05:22:55;;;;;;;38.22;14.15;;;4.80;99.90;;;;;;4996611;28;20038;-64
2021/03/04 05:25:21;;;;;;;45.33;15.05;;;4.90;99.90;;;;;;5000085;28;20061;-65
2021/03/04 05:27:47;;;;;;;44.75;15.52;;;4.80;99.90;;;;;;4996194;28;20457;-64
2021/03/04 05:30:13;;;;;;;39.78;13.75;;;4.80;99.90;;;;;;4997368;28;20034;-65
2021/03/04 05:32:38;;;;;;;38.85;13.68;;;4.80;99.90;;;;;;4994188;28;20042;-65
2021/03/04 05:35:04;;;;;;;37.03;15.25;;;4.80;99.90;;;;;;4991315;28;20492;-65
2021/03/04 05:37:30;;;;;;;42.05;14.45;;;4.80;99.90;;;;;;4991338;28;20030;-65
2021/03/04 05:39:55;;;;;;;41.78;16.05;;;4.90;99.90;;;;;;4993283;28;20034;-65
2021/03/04 05:42:22;;;;;;;41.10;14.68;;;4.90;99.90;;;;;;4992615;28;20041;-64
2021/03/04 05:44:48;;;;;;;39.90;14.60;;;4.90;99.90;;;;;;4993602;28;20472;-66
2021/03/04 05:47:14;;;;;;;41.65;14.60;;;4.90;99.90;;;;;;4993923;28;20109;-62
2021/03/04 05:50:08;;;;;;;43.30;14.43;;;4.90;99.90;;;;;;4994524;28;20129;-65
2021/03/04 05:52:43;;;;;;;44.05;15.55;;;4.90;99.90;;;;;;4990756;28;20034;-65
2021/03/04 05:55:09;;;;;;;43.70;14.73;;;4.90;99.90;;;;;;4992490;28;20046;-64
2021/03/04 05:57:35;;;;;;;46.20;14.75;;;4.90;99.90;;;;;;4999996;28;20084;-65
2021/03/04 06:00:01;;;;;;;45.47;15.15;;;4.90;99.90;;;;;;4985140;28;20054;-64
2021/03/04 06:02:27;;;;;;;46.15;15.35;;;4.90;99.90;;;;;;4990704;28;20066;-65
2021/03/04 06:04:53;;;;;;;51.10;15.07;;;4.90;99.90;;;;;;4987026;28;20037;-65
2021/03/04 06:07:18;;;;;;;41.65;14.40;;;4.90;99.90;;;;;;4986377;28;20411;-65
2021/03/04 06:09:44;;;;;;;43.15;13.88;;;4.80;99.90;;;;;;4990070;28;20120;-65
2021/03/04 06:12:10;;;;;;;41.25;14.65;;;4.90;99.90;;;;;;4993706;28;20038;-65
2021/03/04 06:14:37;;;;;;;48.13;14.70;;;4.90;99.90;;;;;;4997654;28;20034;-65
2021/03/04 06:17:19;;;;;;;46.13;16.27;;;4.90;99.90;;;;;;4996707;28;20095;-64
2021/03/04 06:19:52;;;;;;;42.55;13.25;;;4.90;99.90;;;;;;5000269;28;20498;-65
2021/03/04 06:22:33;;;;;;;45.00;14.65;;;4.90;99.90;;;;;;4996915;28;20494;-66
2021/03/04 06:25:00;;;;;;;42.28;14.30;;;4.90;99.90;;;;;;4995154;28;20862;-65
2021/03/04 06:27:35;;;;;;;43.20;13.63;;;4.90;99.90;;;;;;5005064;28;20046;-65
2021/03/04 06:30:08;;;;;;;44.30;16.23;;;4.80;99.90;;;;;;5008185;28;20031;-65
2021/03/04 06:32:34;;;;;;;47.90;15.23;;;4.90;99.90;;;;;;5011702;28;20066;-63
2021/03/04 06:35:02;;;;;;;43.58;15.30;;;4.90;99.90;;;;;;4996885;28;20112;-65
2021/03/04 06:37:29;;;;;;;46.63;15.77;;;4.90;99.90;;;;;;5003309;28;20513;-65
2021/03/04 06:39:55;;;;;;;41.03;14.00;;;4.90;99.90;;;;;;4997826;28;20053;-63
2021/03/04 06:42:22;;;;;;;52.83;16.33;;;4.90;99.90;;;;;;4998663;28;20380;-63
2021/03/04 06:44:51;;;;;;;40.20;14.93;;;4.90;99.90;;;;;;5001436;28;20050;-65
2021/03/04 06:47:22;;;;;;;48.90;16.15;;;4.90;99.90;;;;;;4998343;28;20514;-65
2021/03/04 06:49:48;;;;;;;46.50;15.40;;;5.00;99.90;;;;;;5000732;28;20045;-64
2021/03/04 06:52:28;;;;;;;53.08;15.68;;;5.00;99.90;;;;;;4998664;28;20035;-63
2021/03/04 06:54:54;;;;;;;45.47;15.38;;;5.00;99.90;;;;;;4995888;28;20125;-65
2021/03/04 06:57:21;;;;;;;46.53;14.88;;;5.00;99.90;;;;;;4998859;28;20034;-64
2021/03/04 06:59:48;;;;;;;41.47;15.77;;;5.00;99.90;;;;;;4996581;28;20413;-65
2021/03/04 07:02:29;;;;;;;47.83;15.77;;;4.90;99.90;;;;;;4999233;28;20503;-64
2021/03/04 07:04:56;;;;;;;52.08;14.80;;;4.90;99.90;;;;;;4990727;28;20042;-65
2021/03/04 07:07:24;;;;;;;48.60;15.05;;;4.90;99.90;;;;;;4999970;28;20034;-65
2021/03/04 07:09:50;;;;;;;49.30;15.30;;;4.90;99.90;;;;;;4997457;28;20077;-64
2021/03/04 07:12:22;;;;;;;48.47;14.68;;;4.90;99.90;;;;;;4993347;28;20486;-64
2021/03/04 07:14:49;;;;;;;42.63;13.75;;;4.90;99.90;;;;;;4994912;28;20149;-65
2021/03/04 07:17:17;;;;;;;50.63;16.63;;;4.90;99.90;;;;;;4992120;28;20030;-64
2021/03/04 07:19:50;;;;;;;55.58;16.75;;;4.90;99.90;;;;;;4993586;28;20073;-64
2021/03/04 07:22:18;;;;;;;47.25;14.40;;;5.00;99.90;;;;;;4993685;28;20061;-64
2021/03/04 07:24:45;;;;;;;47.58;14.93;;;5.00;99.90;;;;;;4990352;28;20558;-65
2021/03/04 07:27:13;;;;;;;49.97;15.43;;;5.00;99.90;;;;;;4992744;28;20046;-64
2021/03/04 07:29:40;;;;;;;48.08;16.33;;;5.00;99.90;;;;;;4997587;28;20292;-65
2021/03/04 07:32:07;;;;;;;58.65;16.85;;;5.00;99.90;;;;;;4999082;28;20045;-65
2021/03/04 07:34:35;;;;;;;50.17;15.38;;;5.00;99.90;;;;;;5000239;28;20029;-64
2021/03/04 07:37:02;;;;;;;58.20;17.65;;;5.00;99.90;;;;;;4996137;28;20518;-64
2021/03/04 07:39:33;;;;;;;61.45;17.23;;;5.00;99.90;;;;;;4991897;28;20231;-64
2021/03/04 07:41:59;;;;;;;56.85;17.08;;;5.00;99.90;;;;;;4992884;28;20550;-65
2021/03/04 07:44:26;;;;;;;58.58;17.25;;;5.00;99.90;;;;;;4989414;28;20066;-64
2021/03/04 07:46:54;;;;;;;65.88;18.42;;;5.00;99.90;;;;;;4989903;28;20037;-64
2021/03/04 07:49:30;;;;;;;55.13;17.08;;;5.00;99.90;;;;;;4992692;28;20042;-64
2021/03/04 07:52:08;;;;;;;55.50;16.13;;;5.00;99.90;;;;;;4991440;28;20037;-64
2021/03/04 07:54:33;;;;;;;59.45;16.23;;;5.00;99.90;;;;;;4989502;28;20046;-66
2021/03/04 07:57:04;;;;;;;58.45;18.27;;;5.10;99.90;;;;;;4988045;28;20584;-65
2021/03/04 07:59:29;;;;;;;54.78;17.25;;;5.20;99.90;;;;;;4990697;28;20041;-65
2021/03/04 08:02:00;;;;;;;60.53;17.95;;;5.20;99.90;;;;;;4992378;28;20035;-65
2021/03/04 08:04:27;;;;;;;58.03;16.77;;;5.10;99.90;;;;;;4989284;28;20123;-65
2021/03/04 08:06:54;;;;;;;64.10;18.20;;;5.20;99.90;;;;;;4989584;28;20050;-65
2021/03/04 08:09:34;;;;;;;61.42;17.60;;;5.20;99.90;;;;;;4988391;28;20402;-65
2021/03/04 08:12:26;;;;;;;64.22;17.75;;;5.20;99.90;;;;;;4992245;28;20050;-65
2021/03/04 08:14:57;;;;;;;59.83;17.15;;;5.20;99.90;;;;;;4986734;28;20049;-65
2021/03/04 08:17:34;;;;;;;60.20;17.17;;;5.20;99.90;;;;;;4989752;28;20407;-65
2021/03/04 08:20:06;;;;;;;59.30;19.75;;;5.10;99.90;;;;;;4989169;28;20034;-65
2021/03/04 08:22:33;;;;;;;55.00;17.77;;;5.20;99.90;;;;;;4988853;28;20034;-65
2021/03/04 08:25:01;;;;;;;60.25;18.42;;;5.20;99.90;;;;;;4990331;28;20037;-65
2021/03/04 08:27:28;;;;;;;54.92;17.17;;;5.20;99.90;;;;;;4992680;28;20503;-65
2021/03/04 08:29:53;;;;;;;58.22;17.40;;;5.20;99.90;;;;;;4989900;28;20129;-65
2021/03/04 08:32:19;;;;;;;59.25;18.10;;;5.20;99.90;;;;;;4991616;28;20134;-65
2021/03/04 08:34:45;;;;;;;61.10;17.85;;;5.10;99.90;;;;;;4988784;28;20053;-65
2021/03/04 08:37:22;;;;;;;55.40;17.40;;;5.20;99.90;;;;;;4990713;28;20065;-65
2021/03/04 08:39:53;;;;;;;54.33;15.65;;;5.20;99.90;;;;;;4987988;28;20038;-65
2021/03/04 08:42:18;;;;;;;49.42;15.48;;;5.10;99.90;;;;;;4990291;28;20038;-65
2021/03/04 08:44:49;;;;;;;53.20;15.95;;;5.20;99.90;;;;;;4985827;28;20054;-65
2021/03/04 08:47:16;;;;;;;48.35;14.80;;;5.20;99.90;;;;;;4987944;28;20041;-65
2021/03/04 08:49:52;;;;;;;55.55;14.95;;;5.20;99.90;;;;;;4990372;28;20391;-65
2021/03/04 08:52:22;;;;;;;41.45;14.38;;;5.20;99.90;;;;;;4990350;28;20042;-65
2021/03/04 08:54:49;;;;;;;57.75;15.32;;;5.20;99.90;;;;;;4988342;28;20042;-65
2021/03/04 08:57:27;;;;;;;48.95;15.45;;;5.20;99.90;;;;;;4990058;28;20048;-65
2021/03/04 09:00:07;;;;;;;57.25;17.00;;;5.20;99.90;;;;;;4983939;28;20044;-65
2021/03/04 09:02:32;;;;;;;44.88;14.15;;;5.30;99.90;;;;;;4989740;28;20506;-65
2021/03/04 09:04:58;;;;;;;43.08;13.30;;;5.30;99.90;;;;;;4986458;28;20034;-65
2021/03/04 09:07:28;;;;;;;41.80;12.70;;;5.30;99.90;;;;;;4988563;28;20062;-64
2021/03/04 09:10:03;;;;;;;45.13;14.07;;;5.30;99.90;;;;;;4986942;28;20470;-65
2021/03/04 09:12:29;;;;;;;42.47;13.68;;;5.40;99.90;;;;;;4984714;28;20133;-65
2021/03/04 09:14:56;;;;;;;40.90;13.50;;;5.40;99.90;;;;;;4990377;28;20138;-64
2021/03/04 09:17:22;;;;;;;44.97;14.60;;;5.40;99.90;;;;;;4988704;28;20372;-65
2021/03/04 09:19:53;;;;;;;37.67;11.68;;;5.30;99.90;;;;;;4990896;28;20226;-65
2021/03/04 09:22:22;;;;;;;28.85;9.95;;;5.30;99.90;;;;;;4990739;28;20030;-65
2021/03/04 09:24:49;;;;;;;36.38;11.25;;;5.40;99.90;;;;;;4987889;28;20403;-65
2021/03/04 09:27:18;;;;;;;32.00;11.57;;;5.30;99.90;;;;;;4988373;28;20034;-65
2021/03/04 09:29:44;;;;;;;36.33;11.52;;;5.40;99.90;;;;;;4990457;28;20513;-65
2021/03/04 09:32:10;;;;;;;28.98;10.20;;;5.40;99.90;;;;;;4989607;28;20030;-65
2021/03/04 09:34:44;;;;;;;27.17;9.52;;;5.40;99.90;;;;;;4986667;28;20069;-65
2021/03/04 09:37:30;;;;;;;27.63;10.30;;;5.40;99.90;;;;;;4987670;28;20038;-65
2021/03/04 09:39:56;;;;;;;32.90;10.65;;;5.40;99.90;;;;;;4989776;28;20034;-65
2021/03/04 09:42:39;;;;;;;31.17;9.10;;;5.50;99.90;;;;;;4992798;28;20030;-65
2021/03/04 09:45:07;;;;;;;30.30;9.48;;;5.40;99.90;;;;;;4989603;28;20046;-64
2021/03/04 09:47:34;;;;;;;25.98;8.93;;;5.40;99.90;;;;;;4987596;28;20066;-65
2021/03/04 09:50:03;;;;;;;27.15;8.45;;;5.40;99.90;;;;;;4988665;28;20038;-65
2021/03/04 09:52:31;;;;;;;29.50;9.85;;;5.40;99.90;;;;;;4989599;28;20491;-65
2021/03/04 09:55:11;;;;;;;28.25;8.95;;;5.30;99.90;;;;;;4988791;28;20034;-64
2021/03/04 09:57:41;;;;;;;23.70;8.15;;;5.40;99.90;;;;;;4990992;28;20026;-64
2021/03/04 10:00:16;;;;;;;24.27;8.23;;;5.40;99.90;;;;;;4990866;28;20122;-65
2021/03/04 10:02:49;;;;;;;20.92;8.02;;;5.40;99.90;;;;;;4986962;28;20045;-65
2021/03/04 10:05:19;;;;;;;20.65;7.82;;;5.40;99.90;;;;;;4994806;28;20034;-64
2021/03/04 10:07:50;;;;;;;19.90;6.63;;;5.40;99.90;;;;;;4986351;28;20045;-65
2021/03/04 10:10:18;;;;;;;16.08;5.40;;;5.40;99.90;;;;;;4990137;28;20384;-65
2021/03/04 10:12:56;;;;;;;15.55;5.93;;;5.40;99.90;;;;;;4992183;28;20057;-65
2021/03/04 10:15:28;;;;;;;13.48;4.78;;;5.30;99.90;;;;;;4989369;28;20037;-65
2021/03/04 10:17:56;;;;;;;13.13;4.50;;;5.40;99.90;;;;;;4993671;28;20033;-66
2021/03/04 10:20:22;;;;;;;8.60;3.00;;;5.30;99.90;;;;;;4990943;28;20606;-65
2021/03/04 10:22:49;;;;;;;9.18;3.53;;;5.30;99.90;;;;;;4992436;28;20081;-65
2021/03/04 10:25:15;;;;;;;7.43;2.90;;;5.30;99.90;;;;;;4991839;28;20061;-66
2021/03/04 10:27:40;;;;;;;5.78;2.30;;;5.30;99.90;;;;;;4993141;28;20448;-64
2021/03/04 10:30:09;;;;;;;7.03;2.92;;;5.30;99.90;;;;;;4994003;28;20517;-65
2021/03/04 10:32:35;;;;;;;6.78;2.50;;;5.30;99.90;;;;;;4993436;28;20403;-65
2021/03/04 10:35:00;;;;;;;14.82;3.15;;;5.30;99.90;;;;;;4992781;28;20133;-65
2021/03/04 10:37:26;;;;;;;6.07;2.60;;;5.30;99.90;;;;;;4990473;28;20474;-65
2021/03/04 10:39:51;;;;;;;4.57;2.25;;;5.30;99.90;;;;;;4994205;28;20455;-65
2021/03/04 10:42:17;;;;;;;11.48;3.78;;;5.30;99.90;;;;;;4992817;28;20329;-65
2021/03/04 10:44:43;;;;;;;7.10;3.13;;;5.40;99.90;;;;;;4995620;28;20096;-65
2021/03/04 10:47:09;;;;;;;7.35;2.60;;;5.40;99.90;;;;;;4991605;28;20150;-65
2021/03/04 10:49:34;;;;;;;8.48;2.95;;;5.40;99.90;;;;;;4991134;28;20077;-65
2021/03/04 10:52:00;;;;;;;8.90;3.88;;;5.50;99.90;;;;;;4997778;28;20121;-65
2021/03/04 10:54:28;;;;;;;7.18;2.65;;;5.50;99.90;;;;;;4991475;28;20042;-66
2021/03/04 10:56:54;;;;;;;7.60;3.00;;;5.40;99.90;;;;;;4992406;28;20039;-64
2021/03/04 10:59:20;;;;;;;6.13;3.13;;;5.50;99.90;;;;;;4988577;28;20034;-64
2021/03/04 11:01:45;;;;;;;7.00;3.00;;;5.60;99.90;;;;;;4993209;28;20494;-64
2021/03/04 11:04:11;;;;;;;6.82;2.88;;;5.60;99.90;;;;;;4989733;28;20042;-65
2021/03/04 11:06:36;;;;;;;11.02;3.35;;;5.60;99.90;;;;;;4984795;28;20207;-66
2021/03/04 11:09:02;;;;;;;9.13;3.25;;;5.70;99.90;;;;;;4988774;28;20133;-66
2021/03/04 11:11:28;;;;;;;5.35;2.30;;;5.70;99.90;;;;;;4989120;28;20493;-65
2021/03/04 11:13:53;;;;;;;11.65;2.78;;;5.70;99.90;;;;;;4991536;28;20031;-66
2021/03/04 11:16:19;;;;;;;6.30;2.53;;;5.70;99.90;;;;;;4990357;28;20031;-64
2021/03/04 11:18:44;;;;;;;5.35;3.00;;;5.70;99.90;;;;;;4989369;28;20085;-65
2021/03/04 11:21:10;;;;;;;9.23;3.05;;;5.70;99.90;;;;;;4989656;28;20042;-65
2021/03/04 11:23:35;;;;;;;12.23;5.57;;;5.80;99.90;;;;;;4989596;28;20088;-66
2021/03/04 11:26:01;;;;;;;10.75;4.82;;;5.90;99.90;;;;;;4989071;28;20038;-66
2021/03/04 11:28:27;;;;;;;10.68;3.78;;;6.00;99.90;;;;;;4990591;28;20045;-65
2021/03/04 11:30:52;;;;;;;6.72;2.13;;;6.10;99.90;;;;;;4988928;28;20062;-66
2021/03/04 11:33:20;;;;;;;6.13;2.95;;;6.30;99.90;;;;;;4987868;28;20037;-66
2021/03/04 11:35:45;;;;;;;5.28;2.00;;;6.30;99.90;;;;;;4988947;28;20038;-65
2021/03/04 11:38:11;;;;;;;6.10;2.90;;;6.50;99.90;;;;;;4989754;28;20037;-65
2021/03/04 11:40:36;;;;;;;5.13;2.35;;;6.60;99.90;;;;;;4992471;28;20144;-65
2021/03/04 11:43:02;;;;;;;5.90;2.20;;;6.60;99.90;;;;;;4988815;28;20125;-66
2021/03/04 11:45:27;;;;;;;6.55;2.53;;;6.70;99.90;;;;;;4990684;28;20030;-65
2021/03/04 11:47:53;;;;;;;4.03;2.17;;;6.80;99.90;;;;;;4985837;28;20057;-65
2021/03/04 11:50:18;;;;;;;6.03;2.42;;;6.90;99.90;;;;;;4991485;28;20022;-65
2021/03/04 11:52:44;;;;;;;4.90;1.85;;;6.90;99.90;;;;;;4986248;28;20397;-65
2021/03/04 11:55:10;;;;;;;4.75;2.15;;;6.90;99.90;;;;;;4988604;28;20046;-66
2021/03/04 11:57:36;;;;;;;3.25;1.63;;;7.00;99.90;;;;;;4985260;28;20043;-65
2021/03/04 12:00:04;;;;;;;7.35;1.73;;;6.90;99.90;;;;;;4988408;28;20031;-65
2021/03/04 12:02:29;;;;;;;5.07;2.33;;;6.80;99.90;;;;;;4985988;28;20491;-66
2021/03/04 12:04:55;;;;;;;5.53;1.95;;;6.70;99.90;;;;;;4988740;28;20034;-65
2021/03/04 12:07:21;;;;;;;3.58;1.77;;;6.70;99.90;;;;;;4996029;28;20026;-66
2021/03/04 12:09:48;;;;;;;4.70;1.70;;;6.70;99.90;;;;;;4995726;28;20043;-65
2021/03/04 12:12:13;;;;;;;7.20;2.58;;;6.80;99.90;;;;;;4996508;28;20038;-65
2021/03/04 12:14:39;;;;;;;4.18;2.47;;;6.90;99.90;;;;;;4993440;28;20127;-65
2021/03/04 12:17:04;;;;;;;2.95;1.73;;;6.90;99.90;;;;;;4989562;28;20053;-65
2021/03/04 12:19:30;;;;;;;5.03;2.25;;;6.80;99.90;;;;;;4991579;28;20117;-65
2021/03/04 12:21:55;;;;;;;3.30;1.88;;;6.80;99.90;;;;;;4991162;28;20038;-65
2021/03/04 12:24:21;;;;;;;7.53;2.33;;;6.80;99.90;;;;;;4992444;28;20343;-65
2021/03/04 12:26:47;;;;;;;3.38;1.80;;;6.80;99.90;;;;;;4992073;28;20046;-65
2021/03/04 12:29:14;;;;;;;9.63;1.65;;;6.90;99.90;;;;;;4989827;28;20555;-65
2021/03/04 12:31:40;;;;;;;3.83;1.20;;;6.90;99.90;;;;;;4989491;28;20035;-65
2021/03/04 12:34:06;;;;;;;8.68;2.33;;;7.00;99.90;;;;;;4989251;28;20140;-65
2021/03/04 12:36:32;;;;;;;3.45;1.38;;;7.10;99.90;;;;;;4984327;28;20096;-65
2021/03/04 12:38:58;;;;;;;6.75;1.08;;;7.20;99.90;;;;;;4990718;28;20038;-65
2021/03/04 12:41:24;;;;;;;1.95;1.27;;;7.40;99.90;;;;;;4990809;28;20297;-65
2021/03/04 12:43:49;;;;;;;2.80;1.25;;;7.30;99.90;;;;;;4991773;28;20129;-64